Time;durP1;ratioP1;P1;durP2;ratioP2;P2;SDS_P1;SDS_P2;PMS_P1;PMS_P2;Temp;Humidity;BMP_temperature;BMP_pressure;BME280_temperature;BME280_humidity;BME280_pressure;Samples;Min_cycle;Max_cycle;Signal;HPM_P1;HPM_P2
2022/08/09 00:00:06;;;;;;;1.70;1.60;;;26.70;33.40;;;;;;5110025;27;45282;-70
2022/08/09 00:02:33;;;;;;;1.52;1.42;;;26.60;33.90;;;;;;5109967;27;45220;-72
2022/08/09 00:05:00;;;;;;;1.42;1.33;;;26.60;34.10;;;;;;5108908;27;46507;-70
2022/08/09 00:07:27;;;;;;;2.22;1.52;;;26.60;34.30;;;;;;5109610;27;45313;-70
2022/08/09 00:09:55;;;;;;;4.47;1.40;;;26.50;34.50;;;;;;5109657;27;45221;-70
2022/08/09 00:12:22;;;;;;;2.53;1.27;;;26.50;34.70;;;;;;5109991;27;45161;-70
2022/08/09 00:14:48;;;;;;;1.48;1.38;;;26.50;34.80;;;;;;5109410;27;46397;-70
2022/08/09 00:17:15;;;;;;;3.83;1.45;;;26.50;35.10;;;;;;5109407;27;45333;-70
2022/08/09 00:19:42;;;;;;;2.20;1.33;;;26.40;35.10;;;;;;5113233;27;45153;-70
2022/08/09 00:22:09;;;;;;;2.03;1.60;;;26.40;35.00;;;;;;5130154;27;45405;-71
2022/08/09 00:24:35;;;;;;;2.65;1.48;;;26.40;35.10;;;;;;5129696;27;46393;-70
2022/08/09 00:27:04;;;;;;;1.52;1.30;;;26.40;35.00;;;;;;5129153;27;45184;-70
2022/08/09 00:29:30;;;;;;;2.40;1.48;;;26.40;35.20;;;;;;5129913;27;45331;-70
2022/08/09 00:31:57;;;;;;;1.98;1.60;;;26.40;35.30;;;;;;5130140;27;45315;-71
2022/08/09 00:34:24;;;;;;;1.63;1.52;;;26.40;35.40;;;;;;5129833;27;47281;-71
2022/08/09 00:36:51;;;;;;;1.40;1.30;;;26.30;35.50;;;;;;5129440;27;45212;-70
2022/08/09 00:39:18;;;;;;;2.20;1.33;;;26.30;35.40;;;;;;5129775;27;45212;-70
2022/08/09 00:41:45;;;;;;;2.05;1.50;;;26.30;35.20;;;;;;5130014;27;45168;-70
2022/08/09 00:44:13;;;;;;;1.58;1.48;;;26.30;35.30;;;;;;5129754;27;46746;-70
2022/08/09 00:46:42;;;;;;;1.58;1.40;;;26.20;35.20;;;;;;5129496;27;45293;-70
2022/08/09 00:49:08;;;;;;;1.77;1.25;;;26.20;35.10;;;;;;5129333;27;45194;-70
2022/08/09 00:51:35;;;;;;;1.88;1.27;;;26.10;34.90;;;;;;5129740;27;45201;-70
2022/08/09 00:54:02;;;;;;;1.77;1.40;;;26.20;35.10;;;;;;5129080;27;46483;-70
2022/08/09 00:56:30;;;;;;;1.17;1.13;;;26.10;35.10;;;;;;5129383;27;45298;-70
2022/08/09 00:58:57;;;;;;;1.55;1.35;;;26.10;35.10;;;;;;5129529;27;45259;-69
2022/08/09 01:01:28;;;;;;;1.50;1.35;;;26.10;36.10;;;;;;5129689;27;45193;-70
2022/08/09 01:03:57;;;;;;;2.97;1.52;;;26.10;35.50;;;;;;5129100;27;46400;-70
2022/08/09 01:06:30;;;;;;;1.55;1.45;;;26.00;35.50;;;;;;5129007;27;45169;-70
2022/08/09 01:09:07;;;;;;;2.30;1.48;;;26.00;35.80;;;;;;5129263;27;45327;-70
2022/08/09 01:11:41;;;;;;;1.80;1.35;;;26.00;36.50;;;;;;5129441;27;45185;-70
2022/08/09 01:14:12;;;;;;;2.67;1.27;;;26.00;35.80;;;;;;5129131;27;46645;-71
2022/08/09 01:16:43;;;;;;;1.60;1.50;;;26.00;35.40;;;;;;5129004;27;45321;-70
2022/08/09 01:19:14;;;;;;;1.60;1.50;;;26.00;35.00;;;;;;5129337;27;45253;-71
2022/08/09 01:21:44;;;;;;;1.45;1.33;;;26.10;34.70;;;;;;5108823;27;45153;-71
2022/08/09 01:24:14;;;;;;;2.92;1.40;;;26.10;34.50;;;;;;5108374;27;46649;-71
2022/08/09 01:26:56;;;;;;;2.15;1.50;;;26.10;34.40;;;;;;5108324;27;45240;-71
2022/08/09 01:29:31;;;;;;;2.00;1.30;;;26.10;34.30;;;;;;5112190;27;45246;-71
2022/08/09 01:32:00;;;;;;;1.50;1.40;;;26.20;34.20;;;;;;5129261;27;45234;-71
2022/08/09 01:34:28;;;;;;;2.22;1.25;;;26.20;34.20;;;;;;5128671;27;45396;-71
2022/08/09 01:36:54;;;;;;;2.28;1.20;;;26.20;34.00;;;;;;5127558;27;45204;-71
2022/08/09 01:39:21;;;;;;;1.40;1.30;;;26.20;34.00;;;;;;5128816;27;45331;-71
2022/08/09 01:41:49;;;;;;;1.50;1.17;;;26.20;34.00;;;;;;5129101;27;45255;-70
2022/08/09 01:44:17;;;;;;;1.10;1.10;;;26.20;34.70;;;;;;5128653;27;46383;-70
2022/08/09 01:46:44;;;;;;;1.15;1.15;;;26.20;34.00;;;;;;5128612;27;45213;-70
2022/08/09 01:49:12;;;;;;;1.02;1.00;;;26.20;34.00;;;;;;5128811;27;45599;-70
2022/08/09 01:51:40;;;;;;;1.33;1.23;;;26.20;33.80;;;;;;5128910;27;45224;-70
2022/08/09 01:54:07;;;;;;;2.15;1.30;;;26.20;33.90;;;;;;5128424;27;46399;-70
2022/08/09 01:56:34;;;;;;;1.73;1.40;;;26.20;33.80;;;;;;5128338;27;45265;-71
2022/08/09 01:59:06;;;;;;;1.50;1.40;;;26.20;33.80;;;;;;5128174;27;45174;-70
2022/08/09 02:01:32;;;;;;;1.25;1.20;;;26.20;33.70;;;;;;5128546;27;45387;-71
2022/08/09 02:03:59;;;;;;;1.15;1.08;;;26.20;33.80;;;;;;5128170;27;45579;-70
2022/08/09 02:09:07;;;;;;;1.10;1.10;;;26.20;33.80;;;;;;5127873;27;45431;-70
2022/08/09 02:11:33;;;;;;;2.28;1.38;;;26.20;33.90;;;;;;5128580;27;45137;-70
2022/08/09 02:14:02;;;;;;;1.10;1.10;;;26.20;33.80;;;;;;5128037;27;46544;-71
2022/08/09 02:16:32;;;;;;;1.40;1.30;;;26.20;33.80;;;;;;5127986;27;45247;-70
2022/08/09 02:18:59;;;;;;;1.27;1.17;;;26.10;33.60;;;;;;5128330;27;45257;-70
2022/08/09 02:21:26;;;;;;;1.27;1.23;;;26.10;33.70;;;;;;5109935;27;45206;-71
2022/08/09 02:23:54;;;;;;;1.75;1.33;;;26.10;33.50;;;;;;5107190;27;46367;-70
2022/08/09 02:26:21;;;;;;;1.58;1.27;;;26.10;33.70;;;;;;5107153;27;45236;-71
2022/08/09 02:28:50;;;;;;;2.50;1.20;;;26.10;33.80;;;;;;5107371;27;45232;-70
2022/08/09 02:31:21;;;;;;;1.27;1.20;;;26.10;33.80;;;;;;5127343;27;45236;-70
2022/08/09 02:33:48;;;;;;;1.38;1.20;;;26.00;33.80;;;;;;5127775;27;45257;-71
2022/08/09 02:36:16;;;;;;;1.35;1.23;;;26.00;33.70;;;;;;5127696;27;45237;-70
2022/08/09 02:38:46;;;;;;;1.40;1.30;;;26.00;33.70;;;;;;5128051;27;45319;-71
2022/08/09 02:41:14;;;;;;;1.20;1.20;;;26.00;33.80;;;;;;5128020;27;45156;-71
2022/08/09 02:43:42;;;;;;;1.40;1.30;;;26.00;33.70;;;;;;5127531;27;45232;-70
2022/08/09 02:46:09;;;;;;;1.33;1.23;;;26.00;33.70;;;;;;5127621;27;45255;-70
2022/08/09 02:48:37;;;;;;;0.98;0.98;;;26.00;33.90;;;;;;5127262;27;45262;-70
2022/08/09 02:51:04;;;;;;;1.13;1.13;;;26.00;33.70;;;;;;5127985;27;45312;-70
2022/08/09 02:53:33;;;;;;;1.30;1.20;;;26.00;33.70;;;;;;5127086;27;46480;-70
2022/08/09 02:56:00;;;;;;;1.42;1.13;;;25.90;33.70;;;;;;5127296;27;45234;-70
2022/08/09 02:58:29;;;;;;;1.10;1.00;;;25.90;33.80;;;;;;5127725;27;45275;-71
2022/08/09 03:00:56;;;;;;;1.42;1.08;;;25.90;33.80;;;;;;5127849;27;45391;-71
2022/08/09 03:03:22;;;;;;;2.28;1.23;;;25.90;33.80;;;;;;5127321;27;46408;-71
2022/08/09 03:05:50;;;;;;;1.35;1.23;;;25.90;33.90;;;;;;5127487;27;45255;-71
2022/08/09 03:08:17;;;;;;;3.08;1.40;;;25.90;33.80;;;;;;5127533;27;45278;-70
2022/08/09 03:10:44;;;;;;;1.00;1.00;;;25.90;33.90;;;;;;5127835;27;45232;-71
2022/08/09 03:13:11;;;;;;;1.20;1.20;;;25.80;33.80;;;;;;5127327;27;46384;-71
2022/08/09 03:15:39;;;;;;;1.10;1.10;;;25.90;33.90;;;;;;5127325;27;45286;-71
2022/08/09 03:18:06;;;;;;;1.20;1.10;;;25.90;34.00;;;;;;5127446;27;45297;-71
2022/08/09 03:20:33;;;;;;;1.27;1.17;;;25.80;33.90;;;;;;5116726;27;45441;-71
2022/08/09 03:23:01;;;;;;;1.13;1.10;;;25.80;33.90;;;;;;5106375;27;45209;-71
2022/08/09 03:25:28;;;;;;;1.20;1.20;;;25.80;33.90;;;;;;5106501;27;45305;-71
2022/08/09 03:27:54;;;;;;;1.20;1.08;;;25.80;34.00;;;;;;5106497;27;45223;-71
2022/08/09 03:30:21;;;;;;;1.20;1.10;;;25.80;33.90;;;;;;5118748;27;45387;-70
2022/08/09 03:32:48;;;;;;;1.50;1.40;;;25.80;34.00;;;;;;5127012;27;45186;-71
2022/08/09 03:35:15;;;;;;;1.20;1.10;;;25.70;33.90;;;;;;5126851;27;45208;-71
2022/08/09 03:37:41;;;;;;;1.52;1.42;;;25.70;33.90;;;;;;5127306;27;45221;-71
2022/08/09 03:40:11;;;;;;;1.83;1.10;;;25.70;33.80;;;;;;5126861;27;45341;-70
2022/08/09 03:42:38;;;;;;;1.67;1.20;;;25.60;33.70;;;;;;5126806;27;45215;-70
2022/08/09 03:45:06;;;;;;;1.20;1.20;;;25.70;33.90;;;;;;5126685;27;45201;-70
2022/08/09 03:47:32;;;;;;;2.17;1.30;;;25.70;34.00;;;;;;5126912;27;45394;-71
2022/08/09 03:49:59;;;;;;;1.20;1.10;;;25.60;34.00;;;;;;5127160;27;45461;-71
2022/08/09 03:52:26;;;;;;;1.20;1.10;;;25.60;33.80;;;;;;5126774;27;45475;-71
2022/08/09 03:54:53;;;;;;;1.40;1.17;;;25.60;34.00;;;;;;5126709;27;45242;-70
2022/08/09 03:57:21;;;;;;;1.35;1.20;;;25.60;34.00;;;;;;5127015;27;45225;-70
2022/08/09 03:59:49;;;;;;;2.00;1.20;;;25.60;33.90;;;;;;5127056;27;45361;-70
2022/08/09 04:02:15;;;;;;;1.13;1.10;;;25.50;33.80;;;;;;5129944;27;45267;-71
2022/08/09 04:04:42;;;;;;;1.23;1.13;;;25.50;34.00;;;;;;5130230;27;45347;-70
2022/08/09 04:07:09;;;;;;;1.10;1.10;;;25.50;34.10;;;;;;5130513;27;45234;-70
2022/08/09 04:09:36;;;;;;;1.50;1.40;;;25.50;34.00;;;;;;5130573;27;45191;-70
2022/08/09 04:12:34;;;;;;;1.00;1.00;;;25.50;34.10;;;;;;5129995;27;45264;-71
2022/08/09 04:15:02;;;;;;;1.40;1.30;;;25.50;34.10;;;;;;5118810;27;45280;-71
2022/08/09 04:17:29;;;;;;;1.23;1.17;;;25.50;34.10;;;;;;5130157;27;45241;-70
2022/08/09 04:19:55;;;;;;;1.15;1.13;;;25.50;34.10;;;;;;5124686;27;45402;-71
2022/08/09 04:22:22;;;;;;;1.10;1.10;;;25.40;34.00;;;;;;5109064;27;46411;-71
2022/08/09 04:24:49;;;;;;;1.27;1.20;;;25.40;34.10;;;;;;5109298;27;45325;-71
2022/08/09 04:27:16;;;;;;;1.40;1.23;;;25.40;34.00;;;;;;5109137;27;45335;-71
2022/08/09 04:29:42;;;;;;;1.30;1.20;;;25.40;34.30;;;;;;5115860;27;45277;-71
2022/08/09 04:32:11;;;;;;;1.02;1.02;;;25.40;34.10;;;;;;5129606;27;46401;-71
2022/08/09 04:34:38;;;;;;;1.05;1.05;;;25.40;34.20;;;;;;5129390;27;45239;-71
2022/08/09 04:37:04;;;;;;;1.33;1.30;;;25.30;34.10;;;;;;5129328;27;45401;-71
2022/08/09 04:39:32;;;;;;;1.48;1.25;;;25.30;34.10;;;;;;5129959;27;45339;-71
2022/08/09 04:41:58;;;;;;;1.10;1.10;;;25.30;34.10;;;;;;5129447;27;46588;-71
2022/08/09 04:44:26;;;;;;;1.17;1.08;;;25.30;34.10;;;;;;5129444;27;45277;-71
2022/08/09 04:46:52;;;;;;;1.20;1.10;;;25.30;34.20;;;;;;5129561;27;45267;-71
2022/08/09 04:49:20;;;;;;;1.27;1.20;;;25.30;34.20;;;;;;5129649;27;45437;-71
2022/08/09 04:51:48;;;;;;;1.40;1.30;;;25.30;34.20;;;;;;5129401;27;46439;-71
2022/08/09 04:54:14;;;;;;;1.25;1.23;;;25.20;34.30;;;;;;5129653;27;45552;-71
2022/08/09 04:56:41;;;;;;;1.63;1.10;;;25.20;34.20;;;;;;5129580;27;45166;-70
2022/08/09 04:59:08;;;;;;;1.20;1.20;;;25.20;34.30;;;;;;5129553;27;45221;-71
2022/08/09 05:01:35;;;;;;;1.10;1.10;;;25.20;34.20;;;;;;5129169;27;45227;-70
2022/08/09 05:04:01;;;;;;;1.30;1.20;;;25.20;34.30;;;;;;5129263;27;45321;-71
2022/08/09 05:06:30;;;;;;;2.05;1.30;;;25.20;34.30;;;;;;5129389;27;45172;-71
2022/08/09 05:08:57;;;;;;;1.77;1.23;;;25.20;34.30;;;;;;5129352;27;45249;-71
2022/08/09 05:11:25;;;;;;;1.42;1.20;;;25.20;34.30;;;;;;5128883;27;45474;-71
2022/08/09 05:13:51;;;;;;;1.70;1.40;;;25.20;34.40;;;;;;5129246;27;45386;-71
2022/08/09 05:16:21;;;;;;;1.40;1.30;;;25.20;34.30;;;;;;5129345;27;45253;-71
2022/08/09 05:18:48;;;;;;;1.27;1.17;;;25.20;34.40;;;;;;5129427;27;45419;-71
2022/08/09 05:21:15;;;;;;;1.00;1.00;;;25.20;34.40;;;;;;5111497;27;46749;-70
2022/08/09 05:23:44;;;;;;;1.27;1.17;;;25.20;34.40;;;;;;5108340;27;45290;-71
2022/08/09 05:26:10;;;;;;;2.35;1.20;;;25.20;34.40;;;;;;5108663;27;45193;-71
2022/08/09 05:28:37;;;;;;;1.20;1.20;;;25.20;34.50;;;;;;5108539;27;45188;-71
2022/08/09 05:31:04;;;;;;;1.40;1.30;;;25.20;34.50;;;;;;5126164;27;46378;-71
2022/08/09 05:33:31;;;;;;;1.23;1.20;;;25.20;34.60;;;;;;5128908;27;45306;-70
2022/08/09 05:35:58;;;;;;;1.10;1.10;;;25.10;34.50;;;;;;5128868;27;45228;-71
2022/08/09 05:38:24;;;;;;;1.17;1.08;;;25.10;35.30;;;;;;5128984;27;45401;-71
2022/08/09 05:40:52;;;;;;;1.02;1.02;;;25.10;34.60;;;;;;5128581;27;45468;-71
2022/08/09 05:43:19;;;;;;;1.30;1.30;;;25.10;34.70;;;;;;5128684;27;45319;-71
2022/08/09 05:45:46;;;;;;;1.17;1.17;;;25.10;34.70;;;;;;5128805;27;45248;-70
2022/08/09 05:48:13;;;;;;;1.25;1.15;;;25.10;34.70;;;;;;5128885;27;45366;-70
2022/08/09 05:50:42;;;;;;;1.17;1.17;;;25.10;34.60;;;;;;5128711;27;45175;-71
2022/08/09 05:53:09;;;;;;;1.33;0.90;;;25.10;34.60;;;;;;5128963;27;45240;-71
2022/08/09 05:55:36;;;;;;;2.47;1.17;;;25.10;34.70;;;;;;5128746;27;45320;-71
2022/08/09 05:58:04;;;;;;;2.15;1.10;;;25.10;34.60;;;;;;5128923;27;45506;-71
2022/08/09 06:00:31;;;;;;;1.05;1.05;;;25.10;34.70;;;;;;5128360;27;47559;-71
2022/08/09 06:02:58;;;;;;;1.10;1.10;;;25.10;34.70;;;;;;5128562;27;45178;-71
2022/08/09 06:05:25;;;;;;;1.65;1.00;;;25.10;34.70;;;;;;5128749;27;45253;-71
2022/08/09 06:07:52;;;;;;;1.52;1.00;;;25.10;34.70;;;;;;5128028;27;45239;-71
2022/08/09 06:10:19;;;;;;;1.30;1.20;;;25.10;34.70;;;;;;5128253;27;45387;-71
2022/08/09 06:12:46;;;;;;;1.20;1.10;;;25.10;34.60;;;;;;5128415;27;45220;-71
2022/08/09 06:15:14;;;;;;;1.33;1.25;;;25.20;34.70;;;;;;5128399;27;45310;-71
2022/08/09 06:17:41;;;;;;;1.13;1.13;;;25.10;34.60;;;;;;5128567;27;45370;-71
2022/08/09 06:20:09;;;;;;;1.10;1.00;;;25.10;34.70;;;;;;5120643;27;47268;-71
2022/08/09 06:22:36;;;;;;;1.10;1.08;;;25.10;34.70;;;;;;5107766;27;45180;-71
2022/08/09 06:25:03;;;;;;;1.25;1.15;;;25.10;34.70;;;;;;5107191;27;45255;-71
2022/08/09 06:27:30;;;;;;;1.90;1.20;;;25.10;34.70;;;;;;5107756;27;45427;-71
2022/08/09 06:29:57;;;;;;;1.10;1.10;;;25.10;34.70;;;;;;5107206;27;46438;-71
2022/08/09 06:32:25;;;;;;;0.98;0.98;;;25.10;34.70;;;;;;5107516;27;45206;-71
2022/08/09 06:34:52;;;;;;;1.15;1.10;;;25.10;34.80;;;;;;5107585;27;45192;-71
2022/08/09 06:37:18;;;;;;;1.20;1.08;;;25.10;34.80;;;;;;5107252;27;45296;-71
2022/08/09 06:39:45;;;;;;;1.63;1.15;;;25.10;34.80;;;;;;5107268;27;45354;-71
2022/08/09 06:42:13;;;;;;;1.00;1.00;;;25.10;34.80;;;;;;5107193;27;45310;-71
2022/08/09 06:44:39;;;;;;;1.08;1.08;;;25.20;34.90;;;;;;5107292;27;45260;-71
2022/08/09 06:47:06;;;;;;;1.10;1.10;;;25.20;34.90;;;;;;5107407;27;45394;-71
2022/08/09 06:49:34;;;;;;;1.38;1.10;;;25.20;35.00;;;;;;5106927;27;45470;-71
2022/08/09 06:52:01;;;;;;;1.20;1.10;;;25.20;35.00;;;;;;5106757;27;45383;-70
2022/08/09 06:54:28;;;;;;;1.05;1.05;;;25.20;35.00;;;;;;5106925;27;45286;-71
2022/08/09 06:56:55;;;;;;;1.10;1.10;;;25.20;35.00;;;;;;5107463;27;45384;-71
2022/08/09 06:59:21;;;;;;;1.65;1.17;;;25.10;34.90;;;;;;5107075;27;46676;-71
2022/08/09 07:01:48;;;;;;;1.27;1.25;;;25.20;35.00;;;;;;5107132;27;45110;-71
2022/08/09 07:04:15;;;;;;;1.00;1.00;;;25.20;35.10;;;;;;5107302;27;45251;-71
2022/08/09 07:06:43;;;;;;;1.30;1.10;;;25.20;35.10;;;;;;5107240;27;45395;-71
2022/08/09 07:09:11;;;;;;;1.13;1.13;;;25.20;35.10;;;;;;5106531;27;45227;-71
2022/08/09 07:11:37;;;;;;;1.20;1.10;;;25.20;35.10;;;;;;5107079;27;45220;-71
2022/08/09 07:14:04;;;;;;;1.90;1.13;;;25.20;35.20;;;;;;5106994;27;45235;-71
2022/08/09 07:16:31;;;;;;;1.10;1.10;;;25.20;35.20;;;;;;5107146;27;45295;-71
2022/08/09 07:18:58;;;;;;;1.20;1.10;;;25.20;35.20;;;;;;5106631;27;46383;-71
2022/08/09 07:21:25;;;;;;;1.23;1.20;;;25.20;35.20;;;;;;5124857;27;45299;-71
2022/08/09 07:23:53;;;;;;;1.38;1.27;;;25.20;35.20;;;;;;5127449;27;45175;-71
2022/08/09 07:26:20;;;;;;;1.30;1.10;;;25.20;35.30;;;;;;5127757;27;45244;-71
2022/08/09 07:28:46;;;;;;;1.30;1.20;;;25.20;35.20;;;;;;5127267;27;45232;-71
2022/08/09 07:31:13;;;;;;;2.15;1.13;;;25.20;35.30;;;;;;5107754;27;45279;-71
2022/08/09 07:33:40;;;;;;;1.65;1.00;;;25.20;35.20;;;;;;5106343;27;45185;-70
2022/08/09 07:36:07;;;;;;;1.20;1.10;;;25.30;35.80;;;;;;5108082;27;45403;-71
2022/08/09 07:38:34;;;;;;;1.23;1.17;;;25.40;35.20;;;;;;5109551;27;45251;-71
2022/08/09 07:41:02;;;;;;;1.20;1.20;;;25.30;35.20;;;;;;5109980;27;45306;-71
2022/08/09 07:43:29;;;;;;;1.20;1.10;;;25.40;35.20;;;;;;5110331;27;45271;-71
2022/08/09 07:45:56;;;;;;;1.05;1.05;;;25.40;35.20;;;;;;5110331;27;45172;-71
2022/08/09 07:48:23;;;;;;;1.75;1.25;;;25.40;35.10;;;;;;5109875;27;46375;-71
2022/08/09 07:50:50;;;;;;;1.05;1.05;;;25.40;35.10;;;;;;5109997;27;45394;-71
2022/08/09 07:53:17;;;;;;;1.13;1.13;;;25.40;35.80;;;;;;5109964;27;45290;-71
2022/08/09 07:55:44;;;;;;;1.45;1.17;;;25.50;35.20;;;;;;5109987;27;45230;-71
2022/08/09 07:58:12;;;;;;;1.08;1.08;;;25.50;35.30;;;;;;5109711;27;45197;-71
2022/08/09 08:00:39;;;;;;;1.05;0.95;;;25.50;35.20;;;;;;5109770;27;45188;-71
2022/08/09 08:03:07;;;;;;;1.00;1.00;;;25.50;35.20;;;;;;5110198;27;45269;-71
2022/08/09 08:05:34;;;;;;;1.33;1.20;;;25.50;35.20;;;;;;5109924;27;45228;-71
2022/08/09 08:08:02;;;;;;;1.35;1.23;;;25.50;35.30;;;;;;5109379;27;46358;-71
2022/08/09 08:10:28;;;;;;;1.30;1.20;;;25.50;35.30;;;;;;5109636;27;45238;-71
2022/08/09 08:12:55;;;;;;;1.08;0.98;;;25.60;35.30;;;;;;5109848;27;45220;-71
2022/08/09 08:15:23;;;;;;;0.90;0.90;;;25.60;35.30;;;;;;5109989;27;45378;-71
2022/08/09 08:17:51;;;;;;;0.93;0.93;;;25.60;35.30;;;;;;5109369;27;46439;-71
2022/08/09 08:20:18;;;;;;;1.00;1.00;;;25.60;35.20;;;;;;5118183;27;45207;-71
2022/08/09 08:22:44;;;;;;;1.30;1.20;;;25.60;35.20;;;;;;5130180;27;45173;-71
2022/08/09 08:25:11;;;;;;;0.90;0.90;;;25.70;35.20;;;;;;5129728;27;45433;-71
2022/08/09 08:27:38;;;;;;;2.53;1.23;;;25.70;35.20;;;;;;5130007;27;46377;-70
2022/08/09 08:30:06;;;;;;;2.15;1.48;;;25.70;36.30;;;;;;5116109;27;45234;-71
2022/08/09 08:32:34;;;;;;;4.70;1.60;;;25.70;38.40;;;;;;5109357;27;45275;-71
2022/08/09 08:35:01;;;;;;;3.75;1.40;;;25.70;38.30;;;;;;5109326;27;45375;-71
2022/08/09 08:37:28;;;;;;;3.88;1.65;;;25.70;38.40;;;;;;5108649;27;46507;-71
2022/08/09 08:39:55;;;;;;;5.47;1.65;;;25.70;38.60;;;;;;5108837;27;45436;-71
2022/08/09 08:42:22;;;;;;;2.00;1.70;;;25.70;39.20;;;;;;5109085;27;45253;-71
2022/08/09 08:44:51;;;;;;;1.95;1.85;;;25.70;39.20;;;;;;5109215;27;45386;-71
2022/08/09 08:47:18;;;;;;;2.92;1.70;;;25.70;39.20;;;;;;5108545;27;46441;-71
2022/08/09 08:49:46;;;;;;;2.72;1.60;;;25.80;39.10;;;;;;5108852;27;45368;-71
2022/08/09 08:52:13;;;;;;;1.70;1.60;;;25.90;39.00;;;;;;5108874;27;45191;-71
2022/08/09 08:54:40;;;;;;;4.93;1.70;;;25.90;39.10;;;;;;5109207;27;45268;-71
2022/08/09 08:57:07;;;;;;;1.88;1.73;;;25.90;38.90;;;;;;5108235;27;45329;-71
2022/08/09 08:59:34;;;;;;;2.80;1.83;;;25.90;39.00;;;;;;5107939;27;45319;-71
2022/08/09 09:02:01;;;;;;;4.35;1.63;;;26.00;39.10;;;;;;5108281;27;45254;-70
2022/08/09 09:04:29;;;;;;;1.85;1.70;;;26.10;39.00;;;;;;5108392;27;45346;-71
2022/08/09 09:06:57;;;;;;;3.38;1.48;;;26.20;38.90;;;;;;5108049;27;45475;-71
2022/08/09 09:09:25;;;;;;;5.32;1.83;;;26.20;38.80;;;;;;5107737;27;45428;-70
2022/08/09 09:11:52;;;;;;;3.05;1.77;;;26.30;38.70;;;;;;5107937;27;45253;-71
2022/08/09 09:14:22;;;;;;;1.77;1.63;;;26.40;38.50;;;;;;5108379;27;45256;-71
2022/08/09 09:16:48;;;;;;;1.92;1.70;;;26.40;38.20;;;;;;5107932;27;46831;-70
2022/08/09 09:19:15;;;;;;;3.05;1.80;;;26.40;38.10;;;;;;5107820;27;45231;-70
2022/08/09 09:22:01;;;;;;;3.40;1.83;;;26.40;38.20;;;;;;5108012;27;45308;-70
2022/08/09 09:24:28;;;;;;;2.80;1.50;;;26.50;37.90;;;;;;5108212;27;45241;-71
2022/08/09 09:26:55;;;;;;;3.30;1.40;;;26.50;37.90;;;;;;5107713;27;45257;-71
2022/08/09 09:29:28;;;;;;;1.67;1.45;;;26.60;38.00;;;;;;5111181;27;45274;-70
2022/08/09 09:31:54;;;;;;;2.08;1.50;;;26.60;37.70;;;;;;5128470;27;45196;-72
2022/08/09 09:34:21;;;;;;;1.83;1.60;;;26.70;37.30;;;;;;5128611;27;45279;-71
2022/08/09 09:36:48;;;;;;;3.53;1.50;;;26.70;36.90;;;;;;5127842;27;46478;-71
2022/08/09 09:39:17;;;;;;;2.90;1.73;;;26.80;36.80;;;;;;5128141;27;45229;-70
2022/08/09 09:41:44;;;;;;;3.05;1.70;;;26.80;36.40;;;;;;5128249;27;45206;-70
2022/08/09 09:44:10;;;;;;;1.20;1.17;;;26.90;36.70;;;;;;5128479;27;45217;-71
2022/08/09 09:46:38;;;;;;;1.30;1.20;;;26.90;35.60;;;;;;5126296;27;45655;-71
2022/08/09 09:49:06;;;;;;;1.65;1.30;;;27.00;33.70;;;;;;5127695;27;45228;-70
2022/08/09 09:51:33;;;;;;;1.38;1.27;;;27.10;32.40;;;;;;5128268;27;45232;-70
2022/08/09 09:54:07;;;;;;;1.45;1.20;;;27.10;32.40;;;;;;5128230;27;45200;-71
2022/08/09 09:56:36;;;;;;;1.10;1.00;;;27.20;32.30;;;;;;5127885;27;45464;-70
2022/08/09 09:59:03;;;;;;;1.13;1.10;;;27.20;31.90;;;;;;5126669;27;45293;-71
2022/08/09 10:01:30;;;;;;;1.90;1.35;;;27.30;31.30;;;;;;5127959;27;45239;-71
2022/08/09 10:03:57;;;;;;;3.38;1.20;;;27.30;30.90;;;;;;5128006;27;45258;-70
2022/08/09 10:06:24;;;;;;;2.92;1.20;;;27.40;30.80;;;;;;5127781;27;46414;-70
2022/08/09 10:08:50;;;;;;;1.15;1.15;;;27.40;31.10;;;;;;5127484;27;45391;-70
2022/08/09 10:11:19;;;;;;;1.20;1.10;;;27.50;31.30;;;;;;5127522;27;45242;-70
2022/08/09 10:13:47;;;;;;;1.65;1.40;;;27.50;30.70;;;;;;5128079;27;45394;-71
2022/08/09 10:16:14;;;;;;;1.00;1.00;;;27.60;30.70;;;;;;5127529;27;45293;-70
2022/08/09 10:18:50;;;;;;;1.20;1.10;;;27.60;30.90;;;;;;5127659;27;45373;-71
2022/08/09 10:21:17;;;;;;;2.22;1.10;;;27.70;31.00;;;;;;5110461;27;45297;-71
2022/08/09 10:23:44;;;;;;;1.40;1.02;;;27.70;31.40;;;;;;5107362;27;45391;-71
2022/08/09 10:26:10;;;;;;;1.75;1.30;;;27.80;30.70;;;;;;5106922;27;45312;-70
2022/08/09 10:28:38;;;;;;;1.33;1.20;;;27.90;30.80;;;;;;5106814;27;45246;-70
2022/08/09 10:31:06;;;;;;;1.80;1.15;;;27.90;30.80;;;;;;5125029;27;45204;-70
2022/08/09 10:33:34;;;;;;;5.18;1.38;;;28.00;30.60;;;;;;5127827;27;45303;-71
2022/08/09 10:36:01;;;;;;;2.78;1.20;;;28.00;30.60;;;;;;5127243;27;47554;-70
2022/08/09 10:38:28;;;;;;;2.08;1.52;;;28.10;30.20;;;;;;5127481;27;45280;-70
2022/08/09 10:40:55;;;;;;;1.48;1.25;;;28.20;30.20;;;;;;5127501;27;45186;-70
2022/08/09 10:43:22;;;;;;;1.38;1.27;;;28.20;30.00;;;;;;5127749;27;45236;-70
2022/08/09 10:45:49;;;;;;;1.40;1.02;;;28.30;30.00;;;;;;5127213;27;45356;-70
2022/08/09 10:48:19;;;;;;;3.05;1.40;;;28.40;30.00;;;;;;5127340;27;45283;-70
2022/08/09 10:53:51;;;;;;;2.63;1.23;;;28.50;29.90;;;;;;5127781;27;45328;-71
2022/08/09 10:56:23;;;;;;;1.40;1.30;;;28.50;29.90;;;;;;5126901;27;46634;-70
2022/08/09 10:58:50;;;;;;;1.30;1.20;;;28.60;29.90;;;;;;5127110;27;45258;-70
2022/08/09 11:01:38;;;;;;;1.27;1.17;;;28.60;29.70;;;;;;5127188;27;45386;-71
2022/08/09 11:04:17;;;;;;;2.35;1.20;;;28.70;29.70;;;;;;5127345;27;45495;-71
2022/08/09 11:06:44;;;;;;;1.90;1.20;;;28.70;29.60;;;;;;5126881;27;45277;-70
2022/08/09 11:09:12;;;;;;;2.78;1.30;;;28.80;29.90;;;;;;5127088;27;45218;-70
2022/08/09 11:12:16;;;;;;;1.58;1.40;;;28.80;29.50;;;;;;5130831;27;45327;-71
2022/08/09 11:14:47;;;;;;;3.00;1.30;;;28.90;29.30;;;;;;5131438;27;45457;-71
2022/08/09 11:17:51;;;;;;;1.83;1.10;;;29.10;29.30;;;;;;5130532;27;45210;-68
2022/08/09 11:20:37;;;;;;;1.33;1.23;;;29.10;29.20;;;;;;5121659;27;45247;-71
2022/08/09 11:23:04;;;;;;;1.73;1.20;;;29.20;29.20;;;;;;5109944;27;45193;-71
2022/08/09 11:25:45;;;;;;;1.90;1.00;;;29.30;29.30;;;;;;5110091;27;45254;-70
2022/08/09 11:28:38;;;;;;;1.15;1.15;;;29.40;28.90;;;;;;5109641;27;45203;-71
2022/08/09 11:31:39;;;;;;;2.92;1.27;;;29.40;29.00;;;;;;5127567;27;45253;-71
2022/08/09 11:34:09;;;;;;;2.40;1.38;;;29.50;28.60;;;;;;5130516;27;45173;-71
2022/08/09 11:36:39;;;;;;;1.60;1.50;;;29.60;28.80;;;;;;5130278;27;45339;-70
2022/08/09 11:39:06;;;;;;;2.45;1.42;;;29.60;28.50;;;;;;5130244;27;45278;-70
2022/08/09 11:41:33;;;;;;;2.22;1.10;;;29.70;28.40;;;;;;5130100;27;45350;-71
2022/08/09 11:44:00;;;;;;;1.42;1.20;;;29.80;28.40;;;;;;5130387;27;45340;-70
2022/08/09 11:46:27;;;;;;;2.33;1.10;;;29.90;28.40;;;;;;5130344;27;45175;-71
2022/08/09 11:48:55;;;;;;;1.30;1.20;;;30.00;28.30;;;;;;5129829;27;45278;-72
2022/08/09 11:51:23;;;;;;;1.27;1.17;;;30.00;28.00;;;;;;5129995;27;45308;-71
2022/08/09 11:54:11;;;;;;;2.35;1.13;;;30.10;27.80;;;;;;5130156;27;45292;-70
2022/08/09 11:56:38;;;;;;;1.88;1.35;;;30.20;27.60;;;;;;5130286;27;45398;-71
2022/08/09 11:59:06;;;;;;;1.08;1.02;;;30.30;27.40;;;;;;5129751;27;46707;-71
2022/08/09 12:01:34;;;;;;;1.35;1.17;;;30.40;27.90;;;;;;5129992;27;45310;-70
2022/08/09 12:04:02;;;;;;;1.13;1.10;;;30.50;27.40;;;;;;5129977;27;45246;-71
2022/08/09 12:06:29;;;;;;;1.83;1.30;;;30.50;27.10;;;;;;5130116;27;45414;-71
2022/08/09 12:08:57;;;;;;;3.03;1.30;;;30.50;27.40;;;;;;5129641;27;45303;-70
2022/08/09 12:11:25;;;;;;;1.63;1.30;;;30.50;27.10;;;;;;5129734;27;45251;-70
2022/08/09 12:13:53;;;;;;;1.00;1.00;;;30.60;27.70;;;;;;5129934;27;45248;-70
2022/08/09 12:16:21;;;;;;;1.77;1.10;;;30.60;27.30;;;;;;5129939;27;45115;-71
2022/08/09 12:18:49;;;;;;;1.20;1.10;;;30.70;27.40;;;;;;5129509;27;45468;-70
2022/08/09 12:21:25;;;;;;;1.55;1.20;;;30.80;27.30;;;;;;5111690;27;45326;-70
2022/08/09 12:23:52;;;;;;;4.22;1.38;;;30.90;27.20;;;;;;5109360;27;45254;-70
2022/08/09 12:26:21;;;;;;;1.83;1.30;;;30.90;27.50;;;;;;5109128;27;45251;-71
2022/08/09 12:28:48;;;;;;;1.38;1.10;;;31.00;27.00;;;;;;5108739;27;45276;-70
2022/08/09 12:31:19;;;;;;;1.45;1.13;;;31.10;27.00;;;;;;5128112;27;45224;-70
2022/08/09 12:33:46;;;;;;;2.20;1.23;;;31.20;27.30;;;;;;5129535;27;45215;-70
2022/08/09 12:36:13;;;;;;;1.13;1.02;;;31.20;26.80;;;;;;5129428;27;45282;-70
2022/08/09 12:38:40;;;;;;;2.53;1.38;;;31.30;27.00;;;;;;5129160;27;45485;-70
2022/08/09 12:41:06;;;;;;;1.33;1.00;;;31.30;26.80;;;;;;5123637;27;45394;-70
2022/08/09 12:43:35;;;;;;;2.65;1.25;;;31.40;26.70;;;;;;5129314;27;45251;-70
2022/08/09 12:46:01;;;;;;;1.33;1.20;;;31.40;26.60;;;;;;5126508;27;45283;-71
2022/08/09 12:48:28;;;;;;;2.00;1.10;;;31.50;26.30;;;;;;5112800;27;47308;-71
2022/08/09 12:50:56;;;;;;;2.08;1.17;;;31.60;26.50;;;;;;5108235;27;45306;-71
2022/08/09 12:53:27;;;;;;;3.50;1.40;;;31.60;26.40;;;;;;5108651;27;45189;-71
2022/08/09 12:56:04;;;;;;;4.10;1.27;;;31.60;26.50;;;;;;5108607;27;45419;-71
2022/08/09 12:58:31;;;;;;;1.73;1.30;;;31.60;26.20;;;;;;5108210;27;45237;-71